Time;durP1;ratioP1;P1;durP2;ratioP2;P2;SDS_P1;SDS_P2;PMS_P1;PMS_P2;Temp;Humidity;BMP_temperature;BMP_pressure;BME280_temperature;BME280_humidity;BME280_pressure;Samples;Min_cycle;Max_cycle;Signal;HPM_P1;HPM_P2
2024/02/26 02:44:31;;;;;;;5.93;5.73;;;10.80;12.00;;;;;;4939046;29;20475;-80
2024/02/26 02:46:57;;;;;;;6.07;5.80;;;10.90;11.50;;;;;;4937820;29;20804;-80
2024/02/26 02:49:26;;;;;;;6.50;6.30;;;11.00;11.00;;;;;;4925955;29;20250;-80
2024/02/26 02:51:54;;;;;;;6.50;6.20;;;11.20;11.20;;;;;;4927987;29;20478;-79
2024/02/26 02:54:22;;;;;;;6.20;6.00;;;11.00;11.70;;;;;;4938760;29;20443;-80
2024/02/26 02:56:50;;;;;;;5.97;5.77;;;10.90;11.70;;;;;;4933020;29;20473;-80
2024/02/26 02:59:15;;;;;;;6.50;6.20;;;10.90;12.50;;;;;;4933608;29;20440;-79
2024/02/26 03:01:43;;;;;;;6.23;6.03;;;10.70;12.80;;;;;;4927142;29;20435;-79
2024/02/26 03:04:37;;;;;;;5.70;5.47;;;10.60;13.10;;;;;;4936597;29;20194;-79
2024/02/26 03:07:07;;;;;;;6.30;6.10;;;10.50;13.80;;;;;;4928782;29;20456;-80
2024/02/26 03:09:33;;;;;;;6.40;6.00;;;10.30;14.50;;;;;;4925251;29;20421;-79
2024/02/26 03:12:01;;;;;;;6.10;5.90;;;10.40;15.20;;;;;;4930253;29;20467;-79
2024/02/26 03:14:27;;;;;;;6.07;5.87;;;10.50;15.20;;;;;;4931844;29;20184;-79
2024/02/26 03:16:56;;;;;;;6.10;5.80;;;10.70;15.40;;;;;;4937391;29;20968;-79
2024/02/26 03:19:32;;;;;;;5.90;5.70;;;10.90;14.90;;;;;;4935331;29;20657;-79
2024/02/26 03:21:58;;;;;;;5.60;5.37;;;11.00;13.40;;;;;;4925426;29;20456;-80
2024/02/26 03:24:23;;;;;;;6.47;6.17;;;11.20;13.40;;;;;;4933859;29;20486;-79
2024/02/26 03:26:51;;;;;;;6.40;6.10;;;11.20;13.60;;;;;;4926136;29;20212;-79
2024/02/26 03:29:17;;;;;;;6.70;6.50;;;11.30;13.60;;;;;;4932148;29;20188;-79
2024/02/26 03:31:43;;;;;;;6.47;6.27;;;11.30;11.80;;;;;;4932627;29;20555;-80
2024/02/26 03:34:08;;;;;;;6.40;6.20;;;11.40;12.60;;;;;;4932661;29;20202;-78
2024/02/26 03:36:34;;;;;;;6.33;6.13;;;11.40;12.90;;;;;;4926651;29;20205;-78
2024/02/26 03:39:04;;;;;;;6.33;6.03;;;11.40;12.50;;;;;;4941694;29;20177;-79
2024/02/26 03:41:31;;;;;;;6.70;6.50;;;11.50;12.80;;;;;;4941836;29;20204;-81
2024/02/26 03:44:00;;;;;;;5.90;5.70;;;11.50;12.50;;;;;;4961452;29;20444;-80
2024/02/26 03:46:29;;;;;;;5.97;5.67;;;11.50;12.60;;;;;;4960715;29;20452;-79
2024/02/26 03:48:55;;;;;;;6.00;5.80;;;11.50;12.60;;;;;;4956974;29;20424;-81
2024/02/26 03:51:20;;;;;;;6.20;6.00;;;11.50;12.80;;;;;;4949773;29;20476;-80
2024/02/26 03:53:49;;;;;;;5.83;5.63;;;11.50;12.90;;;;;;4942256;29;20207;-78
2024/02/26 03:56:15;;;;;;;5.70;5.50;;;11.60;13.00;;;;;;4934360;29;20231;-80
2024/02/26 03:58:44;;;;;;;6.37;6.07;;;11.60;14.10;;;;;;4933580;29;20432;-80
2024/02/26 04:01:10;;;;;;;6.57;6.37;;;11.50;14.40;;;;;;4936878;29;20671;-79
2024/02/26 04:03:38;;;;;;;6.63;6.33;;;11.50;14.00;;;;;;4937556;29;20463;-80
2024/02/26 04:06:04;;;;;;;7.23;6.93;;;11.40;14.60;;;;;;4933077;29;20192;-79
2024/02/26 04:08:29;;;;;;;7.00;6.60;;;11.30;15.40;;;;;;4942866;29;20508;-80
2024/02/26 04:10:55;;;;;;;7.90;7.50;;;11.20;15.70;;;;;;4941429;29;20193;-80
2024/02/26 04:13:24;;;;;;;7.87;7.37;;;11.30;15.80;;;;;;4939820;29;20219;-81
2024/02/26 04:15:54;;;;;;;7.87;7.47;;;11.30;15.50;;;;;;4935294;29;20260;-80
2024/02/26 04:18:20;;;;;;;7.83;7.40;;;11.30;15.40;;;;;;4933581;29;20565;-80
2024/02/26 04:20:48;;;;;;;8.00;7.70;;;11.40;14.80;;;;;;4929434;29;20905;-80
2024/02/26 04:23:19;;;;;;;7.80;7.40;;;11.40;15.00;;;;;;4925820;29;20204;-79
2024/02/26 04:25:45;;;;;;;7.07;6.67;;;11.40;15.50;;;;;;4927514;29;20487;-80
2024/02/26 04:28:11;;;;;;;7.30;7.00;;;11.40;14.60;;;;;;4927120;29;20421;-80
2024/02/26 04:30:37;;;;;;;7.73;7.43;;;11.30;15.00;;;;;;4935775;29;20208;-80
2024/02/26 04:33:02;;;;;;;8.53;8.13;;;11.30;15.20;;;;;;4929619;29;20208;-79
2024/02/26 04:35:28;;;;;;;7.40;7.00;;;11.30;14.60;;;;;;4936445;29;20491;-79
2024/02/26 04:37:56;;;;;;;7.70;7.40;;;11.40;14.60;;;;;;4924807;29;20203;-80
2024/02/26 04:40:22;;;;;;;7.10;6.70;;;11.50;14.10;;;;;;4930053;29;20176;-79
2024/02/26 04:42:50;;;;;;;7.10;6.80;;;11.60;14.30;;;;;;4937930;29;20516;-80
2024/02/26 04:45:16;;;;;;;6.70;6.40;;;11.60;13.70;;;;;;4938884;29;20192;-80
2024/02/26 04:47:56;;;;;;;6.97;6.60;;;11.70;13.70;;;;;;4947402;29;20439;-80
2024/02/26 04:50:29;;;;;;;7.27;6.90;;;11.70;13.50;;;;;;4933163;29;20575;-80
2024/02/26 04:52:55;;;;;;;7.07;6.60;;;11.60;13.20;;;;;;4932996;29;20467;-80
2024/02/26 04:55:22;;;;;;;7.93;7.43;;;11.60;13.40;;;;;;4929623;29;20439;-80
2024/02/26 04:57:48;;;;;;;7.20;6.90;;;11.50;13.50;;;;;;4929851;29;20188;-80
2024/02/26 05:00:14;;;;;;;7.53;7.13;;;11.30;14.30;;;;;;4927701;29;20421;-79
2024/02/26 05:02:45;;;;;;;7.63;7.13;;;11.00;14.90;;;;;;4921949;29;20196;-78
2024/02/26 05:05:12;;;;;;;7.30;6.90;;;10.80;15.40;;;;;;4926465;29;20465;-79
2024/02/26 05:07:45;;;;;;;7.67;7.27;;;10.70;15.40;;;;;;4925821;29;20515;-80
2024/02/26 05:10:22;;;;;;;7.13;6.73;;;10.70;15.40;;;;;;4927024;29;20440;-80
2024/02/26 05:12:48;;;;;;;7.63;7.23;;;10.60;15.60;;;;;;4925363;29;20492;-79
2024/02/26 05:15:18;;;;;;;7.30;6.90;;;10.50;15.20;;;;;;4924395;29;20793;-80
2024/02/26 05:17:44;;;;;;;7.60;7.30;;;10.40;15.40;;;;;;4935508;29;20196;-79
2024/02/26 05:20:10;;;;;;;6.80;6.30;;;10.40;15.40;;;;;;4930868;29;20800;-79
2024/02/26 05:22:38;;;;;;;6.73;6.27;;;10.20;15.10;;;;;;4929865;29;20440;-80
2024/02/26 05:25:07;;;;;;;7.40;7.10;;;10.10;15.00;;;;;;4933065;29;20187;-80
2024/02/26 05:27:33;;;;;;;7.03;6.83;;;10.00;14.90;;;;;;4927667;29;20452;-80
2024/02/26 05:30:01;;;;;;;7.30;7.00;;;9.80;15.90;;;;;;4933974;29;20435;-80
2024/02/26 05:32:27;;;;;;;7.30;7.00;;;9.70;16.80;;;;;;4930642;29;20197;-79
2024/02/26 05:34:55;;;;;;;8.00;7.30;;;9.80;17.40;;;;;;4932520;29;20987;-79
2024/02/26 05:37:20;;;;;;;7.63;7.30;;;9.90;17.20;;;;;;4930560;29;20579;-79
2024/02/26 05:39:54;;;;;;;6.80;6.50;;;9.90;17.40;;;;;;4925902;29;20412;-80
2024/02/26 05:42:22;;;;;;;6.50;6.20;;;9.80;17.40;;;;;;4933667;29;20191;-79
2024/02/26 05:44:50;;;;;;;7.13;6.83;;;9.70;18.10;;;;;;4934003;29;20436;-78
2024/02/26 05:47:16;;;;;;;6.77;6.47;;;9.70;17.90;;;;;;4926606;29;20829;-80
2024/02/26 05:49:41;;;;;;;6.80;6.50;;;9.70;18.50;;;;;;4929354;29;20423;-81
2024/02/26 05:52:07;;;;;;;6.77;6.47;;;9.80;19.80;;;;;;4923278;29;21280;-80
2024/02/26 05:54:36;;;;;;;7.27;6.87;;;9.80;20.20;;;;;;4926729;29;20211;-80
2024/02/26 05:57:04;;;;;;;6.60;6.30;;;9.80;19.70;;;;;;4927492;29;20203;-80
2024/02/26 05:59:38;;;;;;;6.63;6.30;;;9.80;18.90;;;;;;4940487;29;20781;-80
2024/02/26 06:02:06;;;;;;;7.93;7.43;;;9.90;19.20;;;;;;4921077;29;20428;-78
2024/02/26 06:04:32;;;;;;;7.40;7.10;;;10.00;17.90;;;;;;4924780;29;20433;-79
2024/02/26 06:06:57;;;;;;;6.80;6.50;;;10.20;18.90;;;;;;4922795;29;20450;-80
2024/02/26 06:09:31;;;;;;;7.00;6.70;;;10.30;18.60;;;;;;4927670;29;20173;-80
2024/02/26 06:11:57;;;;;;;7.13;6.83;;;10.50;18.30;;;;;;4929796;29;20287;-79
2024/02/26 06:14:23;;;;;;;6.80;6.40;;;10.70;17.80;;;;;;4932687;29;20439;-79
2024/02/26 06:16:52;;;;;;;7.63;7.23;;;10.80;17.90;;;;;;4928089;29;20197;-80
2024/02/26 06:19:17;;;;;;;8.30;7.97;;;10.80;17.90;;;;;;4928528;29;20412;-79
2024/02/26 06:21:43;;;;;;;7.80;7.50;;;11.00;18.00;;;;;;4927580;29;20523;-79
2024/02/26 06:24:20;;;;;;;6.97;6.67;;;11.00;17.20;;;;;;4920449;29;20720;-79
2024/02/26 06:26:48;;;;;;;7.90;7.60;;;11.00;17.50;;;;;;4940432;29;20572;-79
2024/02/26 06:29:16;;;;;;;8.13;7.63;;;11.10;17.30;;;;;;4931383;29;20573;-79
2024/02/26 06:31:42;;;;;;;7.60;7.30;;;11.10;17.20;;;;;;4932020;29;20823;-78
2024/02/26 06:34:08;;;;;;;6.90;6.60;;;11.00;17.50;;;;;;4931739;29;20539;-79
2024/02/26 06:36:43;;;;;;;7.57;7.20;;;11.10;17.40;;;;;;4934215;29;20440;-80
2024/02/26 06:39:10;;;;;;;7.30;7.00;;;11.10;17.70;;;;;;4932389;29;20228;-79
2024/02/26 06:41:39;;;;;;;8.43;7.93;;;11.10;18.10;;;;;;4934219;29;20450;-80
2024/02/26 06:44:08;;;;;;;8.17;7.80;;;11.10;18.50;;;;;;4930577;29;20497;-80
2024/02/26 06:46:36;;;;;;;7.77;7.47;;;11.20;18.90;;;;;;4928719;29;20455;-79
2024/02/26 06:49:02;;;;;;;7.83;7.53;;;11.10;18.50;;;;;;4927230;29;20492;-80
2024/02/26 06:51:28;;;;;;;7.90;7.43;;;11.10;17.90;;;;;;4924970;29;20597;-79
2024/02/26 06:53:53;;;;;;;7.47;7.17;;;11.20;18.40;;;;;;4935228;29;20180;-80
2024/02/26 06:56:22;;;;;;;6.97;6.67;;;11.20;18.80;;;;;;4931337;29;20218;-79
2024/02/26 06:59:26;;;;;;;6.70;6.40;;;11.20;18.30;;;;;;4932484;29;20180;-78
2024/02/26 07:02:00;;;;;;;7.60;7.20;;;11.20;17.90;;;;;;4920767;29;20440;-80
2024/02/26 07:04:46;;;;;;;6.63;6.23;;;11.10;19.90;;;;;;4927160;29;20416;-80
2024/02/26 07:07:18;;;;;;;7.63;7.23;;;10.90;21.00;;;;;;4937004;29;20441;-80
2024/02/26 07:09:48;;;;;;;7.10;6.80;;;10.90;20.80;;;;;;4955172;29;20420;-80
2024/02/26 07:12:15;;;;;;;6.80;6.50;;;10.90;20.60;;;;;;4941205;29;20449;-80
2024/02/26 07:14:44;;;;;;;7.40;7.10;;;11.00;20.20;;;;;;4930106;29;20477;-79
2024/02/26 07:17:09;;;;;;;7.17;6.87;;;11.00;19.60;;;;;;4931343;29;20441;-81
2024/02/26 07:19:37;;;;;;;7.10;6.60;;;11.10;19.30;;;;;;4929864;29;20447;-79
2024/02/26 07:22:12;;;;;;;6.53;6.13;;;11.20;18.80;;;;;;4940635;29;20215;-80
2024/02/26 07:24:37;;;;;;;7.10;6.70;;;11.30;18.90;;;;;;4938169;29;20422;-81
2024/02/26 07:27:23;;;;;;;7.10;6.73;;;11.30;18.90;;;;;;4932425;29;20429;-79
2024/02/26 07:29:49;;;;;;;7.30;6.70;;;11.40;19.10;;;;;;4931763;29;20223;-80
2024/02/26 07:32:17;;;;;;;7.77;7.20;;;11.40;18.90;;;;;;4921518;29;20472;-80
2024/02/26 07:34:48;;;;;;;6.87;6.60;;;11.40;18.40;;;;;;4927839;29;20602;-79
2024/02/26 07:37:23;;;;;;;7.30;7.00;;;11.40;18.40;;;;;;4924364;29;20506;-81
2024/02/26 07:40:08;;;;;;;7.00;6.70;;;11.40;19.00;;;;;;4930877;29;20444;-80
2024/02/26 07:42:33;;;;;;;7.10;6.57;;;11.30;18.70;;;;;;4932116;29;20987;-79
2024/02/26 07:45:02;;;;;;;7.33;6.93;;;11.30;18.70;;;;;;4935172;29;20413;-80
2024/02/26 07:47:28;;;;;;;7.53;6.90;;;11.30;18.20;;;;;;4926075;29;20205;-80
2024/02/26 07:49:55;;;;;;;7.27;6.97;;;11.30;18.20;;;;;;4923134;29;20522;-80
2024/02/26 07:52:31;;;;;;;7.20;6.90;;;11.30;18.60;;;;;;4929729;29;20215;-81
2024/02/26 07:54:57;;;;;;;7.70;7.30;;;11.10;18.00;;;;;;4938979;29;20837;-80
2024/02/26 07:57:22;;;;;;;8.40;7.80;;;11.20;19.00;;;;;;4934210;29;20440;-80
2024/02/26 07:59:49;;;;;;;8.43;7.73;;;11.10;19.70;;;;;;4931613;29;20181;-81
2024/02/26 08:02:15;;;;;;;7.63;7.23;;;11.20;19.70;;;;;;4932508;29;20190;-79
2024/02/26 08:04:41;;;;;;;8.50;7.87;;;11.20;19.20;;;;;;4933338;29;20416;-80
2024/02/26 08:07:06;;;;;;;7.47;6.97;;;11.20;19.40;;;;;;4928849;29;20503;-80
2024/02/26 08:09:33;;;;;;;7.87;7.37;;;11.20;19.70;;;;;;4933529;29;20203;-80
2024/02/26 08:11:58;;;;;;;7.10;6.70;;;11.20;18.90;;;;;;4923774;29;20228;-81
2024/02/26 08:14:24;;;;;;;8.63;8.03;;;11.30;18.70;;;;;;4929924;29;20929;-79
2024/02/26 08:16:49;;;;;;;8.90;8.00;;;11.20;18.90;;;;;;4931480;29;20200;-80
2024/02/26 08:19:15;;;;;;;7.93;7.53;;;11.20;19.10;;;;;;4933254;29;20176;-79
2024/02/26 08:21:41;;;;;;;9.17;8.60;;;11.20;19.60;;;;;;4927081;29;20268;-82
2024/02/26 08:24:07;;;;;;;9.97;9.23;;;11.10;18.60;;;;;;4924919;29;20581;-81
2024/02/26 08:26:35;;;;;;;9.70;8.23;;;11.00;19.20;;;;;;4929850;29;20445;-82
2024/02/26 08:29:01;;;;;;;9.73;9.03;;;11.10;19.10;;;;;;4931528;29;20185;-82
2024/02/26 08:31:27;;;;;;;8.80;8.20;;;11.20;18.90;;;;;;4930188;29;20581;-82
2024/02/26 08:33:53;;;;;;;10.70;9.93;;;11.20;18.90;;;;;;4931273;29;20237;-82
2024/02/26 08:36:23;;;;;;;9.40;8.90;;;11.30;18.80;;;;;;4929048;29;21036;-82
2024/02/26 08:38:50;;;;;;;9.30;8.60;;;11.20;18.90;;;;;;4930961;29;20412;-81
2024/02/26 08:41:16;;;;;;;9.10;8.47;;;11.10;19.00;;;;;;4919929;29;20215;-82
2024/02/26 08:43:42;;;;;;;8.23;7.70;;;11.20;18.40;;;;;;4928625;29;20471;-82
2024/02/26 08:46:13;;;;;;;7.70;7.20;;;11.20;17.40;;;;;;4919303;29;20818;-82
2024/02/26 08:48:42;;;;;;;7.93;7.53;;;11.20;16.30;;;;;;4920278;29;20180;-78
2024/02/26 08:51:34;;;;;;;7.77;7.40;;;11.30;16.20;;;;;;4926931;29;20433;-82
2024/02/26 08:54:01;;;;;;;8.37;7.87;;;11.40;16.70;;;;;;4917816;29;21060;-81
2024/02/26 08:56:27;;;;;;;7.97;7.57;;;11.50;16.50;;;;;;4907816;23;20494;-79
2024/02/26 08:58:53;;;;;;;7.90;7.50;;;11.60;16.00;;;;;;4883444;29;20580;-79
2024/02/26 09:01:19;;;;;;;7.53;7.03;;;11.80;16.70;;;;;;4899539;29;20599;-77
2024/02/26 09:03:45;;;;;;;7.83;7.43;;;11.80;16.20;;;;;;4901224;29;20426;-78
2024/02/26 09:06:13;;;;;;;7.30;6.90;;;11.90;15.90;;;;;;4900600;29;20480;-79
2024/02/26 09:08:39;;;;;;;7.10;6.70;;;12.00;14.90;;;;;;4888471;29;20269;-79
2024/02/26 09:11:04;;;;;;;7.07;6.77;;;12.00;14.40;;;;;;4899155;29;20461;-79
2024/02/26 09:13:30;;;;;;;6.87;6.50;;;11.90;14.00;;;;;;4899734;29;20225;-78
2024/02/26 09:15:55;;;;;;;6.67;6.37;;;11.70;14.10;;;;;;4896820;29;20236;-78
2024/02/26 09:18:21;;;;;;;7.63;7.00;;;11.80;14.00;;;;;;4906575;29;20189;-79
2024/02/26 09:20:46;;;;;;;8.23;7.83;;;11.80;13.90;;;;;;4897539;29;20188;-77
2024/02/26 09:23:12;;;;;;;6.83;6.43;;;11.90;14.50;;;;;;4912395;29;20593;-79
2024/02/26 09:25:37;;;;;;;7.80;7.40;;;11.90;13.70;;;;;;4899005;29;20309;-79
2024/02/26 09:28:03;;;;;;;7.47;7.17;;;12.00;13.40;;;;;;4897957;29;20208;-78
2024/02/26 09:30:29;;;;;;;8.10;7.60;;;12.00;13.30;;;;;;4912288;29;20205;-78
2024/02/26 09:32:55;;;;;;;7.47;7.00;;;12.10;13.40;;;;;;4912560;29;20477;-79
2024/02/26 09:35:21;;;;;;;7.90;7.60;;;12.10;13.00;;;;;;4898698;29;20717;-79
2024/02/26 09:37:48;;;;;;;9.40;8.80;;;12.00;13.60;;;;;;4898590;29;20251;-78
2024/02/26 09:40:14;;;;;;;9.63;8.93;;;12.10;13.80;;;;;;4897942;29;20448;-78
2024/02/26 09:42:45;;;;;;;8.90;8.33;;;12.10;13.40;;;;;;4898661;29;20536;-79
2024/02/26 09:45:22;;;;;;;8.93;8.53;;;12.10;13.70;;;;;;4912765;29;20524;-78
2024/02/26 09:47:49;;;;;;;10.00;9.40;;;12.10;13.70;;;;;;4898147;29;20512;-79
2024/02/26 09:50:17;;;;;;;9.87;9.17;;;12.00;13.80;;;;;;4912075;29;20473;-77
2024/02/26 09:52:43;;;;;;;9.67;9.07;;;12.00;14.10;;;;;;4912907;29;20481;-78
2024/02/26 09:55:09;;;;;;;9.20;8.60;;;12.10;14.00;;;;;;4898492;29;20997;-79
2024/02/26 09:57:37;;;;;;;10.33;9.57;;;12.10;14.90;;;;;;4912531;29;20265;-79
2024/02/26 10:00:07;;;;;;;10.87;10.13;;;11.90;15.20;;;;;;4913700;29;20441;-78
2024/02/26 10:02:35;;;;;;;8.97;8.37;;;11.80;14.70;;;;;;4903344;29;20821;-79
2024/02/26 10:05:05;;;;;;;9.43;8.83;;;11.60;14.90;;;;;;4917474;29;20442;-79
2024/02/26 10:07:31;;;;;;;9.37;8.87;;;11.60;15.30;;;;;;4902217;29;20468;-78
2024/02/26 10:09:57;;;;;;;9.47;8.83;;;11.80;16.10;;;;;;4902392;29;20497;-79
2024/02/26 10:12:25;;;;;;;9.40;8.70;;;11.70;15.40;;;;;;4901022;29;20465;-78
2024/02/26 10:14:51;;;;;;;8.90;8.30;;;11.50;15.80;;;;;;4915350;29;20199;-78
2024/02/26 10:17:20;;;;;;;9.37;8.57;;;11.50;15.80;;;;;;4915764;29;20519;-78
2024/02/26 10:19:45;;;;;;;9.23;8.73;;;11.50;15.30;;;;;;4915243;29;20504;-78
2024/02/26 10:22:12;;;;;;;8.83;8.33;;;11.40;15.90;;;;;;4915869;29;20430;-79
2024/02/26 10:24:41;;;;;;;8.17;7.67;;;11.40;15.90;;;;;;4903640;29;21254;-79
2024/02/26 10:27:09;;;;;;;8.50;7.80;;;11.50;15.40;;;;;;4901428;29;20973;-80
2024/02/26 10:29:35;;;;;;;7.87;7.37;;;11.60;15.60;;;;;;4915833;29;20186;-79
2024/02/26 10:32:02;;;;;;;8.80;8.07;;;11.80;16.00;;;;;;4914999;29;20815;-80
2024/02/26 10:34:31;;;;;;;9.40;8.80;;;11.90;14.40;;;;;;4900436;29;20193;-80
2024/02/26 10:36:57;;;;;;;8.27;7.57;;;12.00;13.80;;;;;;4900159;29;20497;-80
2024/02/26 10:39:22;;;;;;;8.70;8.10;;;12.10;13.90;;;;;;4915004;29;20437;-80
2024/02/26 10:41:48;;;;;;;8.23;7.73;;;12.10;13.60;;;;;;4915507;29;20444;-80
2024/02/26 10:44:17;;;;;;;8.50;7.80;;;12.20;13.50;;;;;;4915874;29;20296;-80
2024/02/26 10:46:43;;;;;;;9.37;8.83;;;12.00;13.70;;;;;;4905845;29;20209;-81
2024/02/26 10:49:18;;;;;;;14.20;13.17;;;12.00;14.30;;;;;;4920801;29;20493;-81
2024/02/26 10:51:46;;;;;;;8.50;7.90;;;12.00;13.90;;;;;;4908281;29;20469;-80
2024/02/26 10:54:28;;;;;;;9.13;8.63;;;12.00;14.20;;;;;;4918907;29;20467;-79
2024/02/26 10:56:55;;;;;;;7.83;7.43;;;11.90;14.40;;;;;;4919886;29;20493;-80
2024/02/26 10:59:24;;;;;;;7.87;7.03;;;11.90;14.50;;;;;;4919877;29;20438;-80
2024/02/26 11:01:57;;;;;;;7.47;7.07;;;11.90;14.30;;;;;;4918830;29;20437;-80
2024/02/26 11:04:27;;;;;;;8.40;8.00;;;12.00;14.40;;;;;;4919834;29;20462;-80
2024/02/26 11:06:55;;;;;;;7.10;6.80;;;12.20;13.90;;;;;;4920177;29;20819;-80
2024/02/26 11:09:22;;;;;;;8.00;7.60;;;12.30;13.60;;;;;;4921281;29;20458;-81
2024/02/26 11:11:49;;;;;;;8.50;7.90;;;12.40;13.00;;;;;;4920761;29;20469;-79
2024/02/26 11:14:16;;;;;;;9.03;8.53;;;12.50;13.20;;;;;;4920145;29;20442;-79
2024/02/26 11:16:42;;;;;;;8.50;7.63;;;12.60;13.30;;;;;;4919927;29;20492;-79
2024/02/26 11:19:10;;;;;;;8.50;8.00;;;12.70;13.40;;;;;;4921287;29;20445;-80
2024/02/26 11:21:40;;;;;;;8.23;7.63;;;12.80;12.60;;;;;;4924032;29;20461;-79
2024/02/26 11:24:09;;;;;;;8.87;8.37;;;12.70;12.20;;;;;;4907649;29;20444;-80
2024/02/26 11:26:41;;;;;;;8.30;7.37;;;12.70;12.50;;;;;;4905223;29;20454;-78
2024/02/26 11:29:10;;;;;;;7.93;7.50;;;12.70;12.50;;;;;;4910685;29;20434;-79
2024/02/26 11:31:38;;;;;;;7.60;7.30;;;12.70;12.30;;;;;;4925603;29;20438;-80
2024/02/26 11:34:11;;;;;;;8.17;7.70;;;12.70;12.00;;;;;;4925840;29;20429;-78
2024/02/26 11:36:39;;;;;;;8.10;7.60;;;12.80;11.80;;;;;;4904749;29;20464;-80
2024/02/26 11:39:05;;;;;;;7.73;7.23;;;12.90;11.70;;;;;;4902253;29;20414;-79
2024/02/26 11:41:32;;;;;;;9.00;8.50;;;13.00;11.70;;;;;;4900571;29;20439;-79
2024/02/26 11:44:01;;;;;;;7.30;7.00;;;13.10;11.60;;;;;;4903715;29;20604;-79
2024/02/26 11:46:39;;;;;;;8.20;7.80;;;13.10;11.10;;;;;;4917577;29;20985;-79
2024/02/26 11:49:23;;;;;;;7.00;6.60;;;13.10;11.00;;;;;;4903820;29;20461;-79
2024/02/26 11:52:08;;;;;;;8.20;7.40;;;13.10;11.20;;;;;;4903138;29;20556;-79
2024/02/26 11:55:00;;;;;;;6.93;6.53;;;13.10;12.40;;;;;;4894503;29;20431;-79
2024/02/26 11:57:32;;;;;;;8.40;7.60;;;13.10;11.00;;;;;;4912645;29;20470;-79
2024/02/26 12:00:08;;;;;;;8.37;7.87;;;13.10;11.90;;;;;;4919370;29;20540;-79
2024/02/26 12:03:04;;;;;;;8.97;8.37;;;13.20;11.40;;;;;;4905451;29;20504;-79
2024/02/26 12:05:34;;;;;;;7.97;7.57;;;13.20;11.50;;;;;;4913221;29;20440;-79
2024/02/26 12:08:08;;;;;;;7.83;7.33;;;13.30;11.20;;;;;;4916983;29;20532;-77
2024/02/26 12:10:38;;;;;;;8.43;7.90;;;13.40;11.40;;;;;;4918148;29;20433;-79
2024/02/26 12:13:10;;;;;;;8.87;8.37;;;13.40;11.50;;;;;;4904108;29;20485;-79
2024/02/26 12:15:41;;;;;;;8.23;7.80;;;13.50;11.40;;;;;;4904408;29;20437;-79
2024/02/26 12:18:09;;;;;;;8.10;7.60;;;13.60;11.50;;;;;;4909027;29;20440;-78
2024/02/26 12:20:37;;;;;;;8.20;7.80;;;13.60;11.30;;;;;;4903531;29;20464;-79
2024/02/26 12:23:04;;;;;;;8.43;7.87;;;13.60;11.40;;;;;;4900985;29;20433;-79
2024/02/26 12:25:31;;;;;;;8.43;7.70;;;13.60;11.60;;;;;;4911327;29;20525;-78
2024/02/26 12:27:57;;;;;;;8.97;8.47;;;13.60;11.50;;;;;;4901802;29;20964;-79
2024/02/26 12:30:23;;;;;;;10.00;9.50;;;13.60;11.40;;;;;;4900618;29;20441;-79
2024/02/26 12:32:50;;;;;;;10.97;10.27;;;13.60;11.80;;;;;;4895962;29;20512;-79
2024/02/26 12:35:17;;;;;;;9.27;7.50;;;13.60;11.90;;;;;;4901041;29;20471;-79
2024/02/26 12:37:46;;;;;;;17.20;15.97;;;13.60;11.40;;;;;;4902766;29;20490;-79
2024/02/26 12:40:12;;;;;;;8.93;8.43;;;13.70;11.50;;;;;;4902410;29;20466;-78
2024/02/26 12:42:41;;;;;;;8.17;7.67;;;13.70;11.30;;;;;;4906096;29;20444;-79
2024/02/26 12:45:09;;;;;;;7.43;7.03;;;13.70;12.10;;;;;;4923827;29;20481;-77
2024/02/26 12:47:39;;;;;;;8.57;8.17;;;13.70;11.60;;;;;;4910141;29;20554;-81
2024/02/26 12:50:06;;;;;;;7.87;7.53;;;13.80;11.60;;;;;;4907461;29;20454;-79
2024/02/26 12:52:38;;;;;;;7.90;7.37;;;13.80;11.30;;;;;;4905880;29;20466;-81
2024/02/26 12:55:07;;;;;;;7.90;7.50;;;13.80;11.20;;;;;;4905944;29;20425;-78
2024/02/26 12:57:35;;;;;;;7.40;6.90;;;13.80;11.40;;;;;;4920919;29;20896;-79
2024/02/26 13:00:01;;;;;;;7.80;7.33;;;13.80;11.50;;;;;;4918702;29;20493;-79
2024/02/26 13:02:27;;;;;;;7.33;6.90;;;13.80;11.40;;;;;;4901666;29;20914;-79
2024/02/26 13:04:57;;;;;;;7.37;6.90;;;13.80;11.60;;;;;;4907232;29;20485;-80
2024/02/26 13:07:23;;;;;;;7.47;7.17;;;13.80;12.30;;;;;;4920383;29;20861;-80
2024/02/26 13:09:50;;;;;;;7.80;7.40;;;13.80;12.10;;;;;;4906109;29;20426;-79
2024/02/26 13:12:19;;;;;;;7.10;6.80;;;13.90;11.50;;;;;;4904100;29;20200;-80
2024/02/26 13:14:45;;;;;;;7.80;7.33;;;13.90;11.60;;;;;;4902820;29;20418;-80
2024/02/26 13:17:11;;;;;;;6.47;6.27;;;14.00;11.40;;;;;;4902214;29;20884;-79
2024/02/26 13:19:36;;;;;;;7.50;7.20;;;14.00;11.30;;;;;;4901029;29;20189;-79
2024/02/26 13:22:06;;;;;;;7.67;7.37;;;14.00;11.40;;;;;;4898846;29;20319;-79
2024/02/26 13:24:33;;;;;;;8.50;8.10;;;14.00;11.30;;;;;;4900060;29;20181;-78
2024/02/26 13:26:58;;;;;;;8.13;7.53;;;14.10;11.20;;;;;;4898355;29;20958;-80
2024/02/26 13:29:27;;;;;;;8.03;7.43;;;14.10;11.10;;;;;;4903747;29;20426;-80
2024/02/26 13:31:58;;;;;;;7.30;7.00;;;14.00;11.20;;;;;;4914359;29;20205;-80
2024/02/26 13:34:27;;;;;;;6.97;6.67;;;14.00;11.30;;;;;;4899610;29;20441;-80
2024/02/26 13:36:54;;;;;;;6.53;6.23;;;14.00;12.30;;;;;;4895463;29;20441;-80
2024/02/26 13:39:24;;;;;;;6.73;6.33;;;14.00;11.30;;;;;;4908248;29;20429;-80
2024/02/26 13:41:50;;;;;;;5.77;5.50;;;13.90;11.00;;;;;;4909547;29;20433;-80
2024/02/26 13:44:16;;;;;;;6.33;6.13;;;13.90;10.70;;;;;;4908958;29;20947;-79
2024/02/26 13:46:42;;;;;;;6.07;5.73;;;14.00;10.30;;;;;;4908059;29;20444;-78
2024/02/26 13:49:09;;;;;;;6.60;6.30;;;14.00;10.20;;;;;;4907344;29;20421;-80
2024/02/26 13:51:37;;;;;;;6.83;6.63;;;14.00;10.40;;;;;;4898845;29;20679;-79
2024/02/26 13:54:04;;;;;;;5.87;5.67;;;14.10;10.50;;;;;;4906708;29;20421;-78
2024/02/26 13:56:32;;;;;;;6.53;6.23;;;14.10;11.10;;;;;;4907101;29;20452;-80
2024/02/26 13:58:59;;;;;;;6.83;6.63;;;14.20;10.20;;;;;;4907214;29;20512;-78
2024/02/26 14:01:25;;;;;;;6.30;6.00;;;14.20;10.10;;;;;;4921544;29;20526;-79
2024/02/26 14:03:51;;;;;;;6.93;6.63;;;14.30;10.10;;;;;;4906022;29;20414;-77
2024/02/26 14:06:17;;;;;;;6.70;6.40;;;14.30;10.90;;;;;;4919868;29;20984;-78
2024/02/26 14:08:42;;;;;;;7.70;7.10;;;14.40;10.10;;;;;;4907314;29;20173;-79
2024/02/26 14:11:08;;;;;;;7.00;6.70;;;14.50;10.20;;;;;;4923363;29;21051;-78
2024/02/26 14:13:34;;;;;;;6.60;6.30;;;14.50;10.20;;;;;;4897181;29;20209;-79
2024/02/26 14:15:59;;;;;;;7.07;6.77;;;14.60;10.70;;;;;;4897398;29;20202;-78
2024/02/26 14:18:25;;;;;;;6.10;5.90;;;14.60;10.60;;;;;;4906708;29;20182;-78
2024/02/26 14:20:51;;;;;;;6.37;6.10;;;14.70;10.50;;;;;;4896344;29;20532;-77
2024/02/26 14:23:16;;;;;;;7.20;6.90;;;14.60;10.60;;;;;;4901085;29;20170;-77
2024/02/26 14:25:42;;;;;;;7.17;6.87;;;14.60;10.90;;;;;;4912458;29;20436;-79
2024/02/26 14:28:08;;;;;;;7.07;6.70;;;14.60;10.60;;;;;;4905361;29;20252;-77
2024/02/26 14:30:33;;;;;;;6.23;6.00;;;14.70;10.40;;;;;;4905104;29;20272;-78
2024/02/26 14:32:59;;;;;;;7.10;6.70;;;14.70;10.30;;;;;;4905490;29;20252;-78
2024/02/26 14:35:26;;;;;;;6.03;5.83;;;14.70;10.30;;;;;;4905252;29;20192;-78
2024/02/26 14:37:51;;;;;;;7.03;6.73;;;14.70;10.00;;;;;;4905401;29;20337;-78
2024/02/26 14:40:18;;;;;;;6.83;6.50;;;14.60;10.90;;;;;;4919674;29;20471;-78
2024/02/26 14:42:44;;;;;;;7.17;6.87;;;14.60;11.20;;;;;;4919598;29;20272;-78
2024/02/26 14:45:11;;;;;;;6.97;6.67;;;14.50;11.10;;;;;;4904631;29;20803;-77
2024/02/26 14:47:37;;;;;;;6.03;5.83;;;14.60;11.30;;;;;;4903412;29;20482;-78
2024/02/26 14:50:03;;;;;;;5.70;5.50;;;14.60;10.70;;;;;;4903373;29;20523;-78
2024/02/26 14:52:29;;;;;;;6.47;6.17;;;14.60;10.70;;;;;;4902281;29;20457;-78
2024/02/26 14:54:55;;;;;;;6.70;6.40;;;14.70;10.70;;;;;;4902266;29;20536;-78
2024/02/26 14:57:20;;;;;;;6.03;5.83;;;14.70;10.80;;;;;;4901438;29;20350;-79
2024/02/26 14:59:46;;;;;;;6.53;6.23;;;14.70;10.80;;;;;;4901999;29;20182;-78
2024/02/26 15:02:11;;;;;;;6.30;6.10;;;14.70;10.90;;;;;;4901838;29;20264;-78
2024/02/26 15:04:37;;;;;;;6.67;6.37;;;14.80;10.60;;;;;;4901820;29;20178;-79
2024/02/26 15:07:03;;;;;;;5.73;5.53;;;14.80;10.80;;;;;;4902339;29;20228;-79
2024/02/26 15:09:29;;;;;;;6.20;6.00;;;14.80;11.00;;;;;;4899023;29;20242;-79
2024/02/26 15:11:57;;;;;;;5.80;5.60;;;14.70;11.20;;;;;;4890429;29;20969;-78
2024/02/26 15:14:23;;;;;;;5.50;5.30;;;14.70;11.30;;;;;;4886361;29;20945;-79
2024/02/26 15:16:48;;;;;;;5.90;5.70;;;14.70;11.30;;;;;;4916374;29;20434;-79
2024/02/26 15:19:14;;;;;;;12.83;7.20;;;14.70;11.00;;;;;;4914563;29;20178;-77
2024/02/26 15:21:43;;;;;;;7.17;6.87;;;14.70;11.40;;;;;;4911950;29;20241;-77
2024/02/26 15:24:11;;;;;;;6.40;6.10;;;14.70;10.80;;;;;;4913422;29;20189;-78
2024/02/26 15:26:37;;;;;;;6.60;6.30;;;14.60;10.00;;;;;;4899301;29;20492;-77
2024/02/26 15:29:02;;;;;;;6.63;6.33;;;14.60;9.40;;;;;;4913441;29;20524;-78
2024/02/26 15:31:28;;;;;;;6.00;5.77;;;14.60;9.80;;;;;;4918302;29;20418;-77
2024/02/26 15:33:53;;;;;;;6.53;6.13;;;14.50;9.30;;;;;;4901895;29;20181;-78
2024/02/26 15:36:19;;;;;;;6.07;5.77;;;14.50;10.10;;;;;;4918857;29;20208;-78